createdAt,value
2017-07-24T00:01:17.264Z,17.80
2017-07-24T00:03:44.903Z,17.80
2017-07-24T00:06:12.563Z,17.70
2017-07-24T00:08:40.204Z,17.60
2017-07-24T00:11:07.832Z,17.50
2017-07-24T00:13:35.506Z,17.40
2017-07-24T00:16:03.140Z,17.30
2017-07-24T00:18:30.767Z,17.20
2017-07-24T00:20:58.437Z,17.20
2017-07-24T00:23:26.068Z,17.10
2017-07-24T00:25:54.494Z,17.10
2017-07-24T00:28:22.151Z,17.00
2017-07-24T00:30:49.825Z,16.90
2017-07-24T00:33:17.461Z,16.90
2017-07-24T00:35:45.115Z,17.00
2017-07-24T00:38:12.735Z,16.90
2017-07-24T00:40:40.370Z,16.90
2017-07-24T00:43:08.027Z,16.80
2017-07-24T00:45:35.664Z,16.80
2017-07-24T00:48:03.300Z,16.70
2017-07-24T00:50:31.724Z,16.60
2017-07-24T00:52:59.355Z,16.50
2017-07-24T00:55:27.001Z,16.50
2017-07-24T00:57:54.678Z,16.50
2017-07-24T01:00:22.330Z,16.50
2017-07-24T01:02:49.990Z,16.40
2017-07-24T01:05:18.415Z,16.20
2017-07-24T01:07:46.057Z,16.20
2017-07-24T01:10:13.702Z,16.20
2017-07-24T01:12:41.377Z,16.10
2017-07-24T01:15:09.013Z,16.10
2017-07-24T01:17:36.642Z,16.00
2017-07-24T01:20:04.298Z,15.90
2017-07-24T01:22:31.929Z,15.70
2017-07-24T01:24:59.565Z,15.80
2017-07-24T01:27:27.224Z,15.70
2017-07-24T01:29:54.858Z,15.70
2017-07-24T01:32:22.472Z,15.70
2017-07-24T01:34:50.176Z,15.60
2017-07-24T01:37:17.805Z,15.70
2017-07-24T01:39:45.419Z,15.60
2017-07-24T01:42:13.080Z,15.50
2017-07-24T01:44:40.700Z,15.50
2017-07-24T01:47:09.092Z,15.30
2017-07-24T01:49:36.742Z,15.30
2017-07-24T01:52:04.376Z,15.30
2017-07-24T01:54:32.015Z,15.20
2017-07-24T01:56:59.676Z,15.10
2017-07-24T01:59:27.309Z,15.00
2017-07-24T02:01:54.949Z,15.10
2017-07-24T02:04:23.409Z,15.00
2017-07-24T02:06:51.809Z,15.10
2017-07-24T02:09:19.444Z,15.10
2017-07-24T02:11:47.108Z,15.10
2017-07-24T02:14:14.745Z,15.00
2017-07-24T02:16:42.372Z,15.00
2017-07-24T02:19:10.042Z,14.90
2017-07-24T02:21:37.663Z,14.90
2017-07-24T02:24:05.288Z,14.90
2017-07-24T02:26:33.732Z,14.70
2017-07-24T02:29:01.365Z,14.70
2017-07-24T02:31:29.000Z,14.70
2017-07-24T02:33:56.648Z,14.80
2017-07-24T02:36:24.280Z,14.80
2017-07-24T02:38:51.918Z,14.80
2017-07-24T02:41:19.576Z,14.70
2017-07-24T02:43:47.212Z,14.70
2017-07-24T02:46:14.857Z,14.60
2017-07-24T02:48:42.520Z,14.50
2017-07-24T02:51:10.669Z,14.60
2017-07-24T02:53:38.310Z,14.50
2017-07-24T02:56:05.958Z,14.50
2017-07-24T02:58:33.590Z,14.50
2017-07-24T03:01:01.592Z,14.50
2017-07-24T03:03:29.269Z,14.50
2017-07-24T03:05:56.891Z,14.60
2017-07-24T03:08:24.563Z,14.50
2017-07-24T03:10:52.219Z,14.40
2017-07-24T03:13:20.608Z,14.40
2017-07-24T03:15:51.790Z,14.40
2017-07-24T03:18:20.647Z,14.50
2017-07-24T03:20:48.282Z,14.40
2017-07-24T03:23:15.920Z,14.30
2017-07-24T03:25:43.580Z,14.30
2017-07-24T03:28:11.248Z,14.30
2017-07-24T03:30:38.886Z,14.30
2017-07-24T03:33:06.552Z,14.30
2017-07-24T03:35:34.183Z,14.30
2017-07-24T03:38:01.815Z,14.20
2017-07-24T03:40:29.473Z,14.20
2017-07-24T03:42:57.102Z,14.20
2017-07-24T03:45:24.728Z,14.20
2017-07-24T03:47:52.401Z,14.20
2017-07-24T03:50:20.023Z,14.30
2017-07-24T03:52:47.663Z,14.20
2017-07-24T03:55:15.318Z,14.20
2017-07-24T03:57:42.945Z,14.20
2017-07-24T04:00:10.586Z,14.30
2017-07-24T04:02:39.022Z,14.30
2017-07-24T04:05:06.647Z,14.20
2017-07-24T04:07:34.280Z,14.40
2017-07-24T04:10:01.969Z,14.30
2017-07-24T04:12:29.592Z,14.40
2017-07-24T04:14:57.224Z,14.40
2017-07-24T04:17:24.909Z,14.50
2017-07-24T04:19:52.536Z,14.50
2017-07-24T04:22:20.186Z,14.50
2017-07-24T04:24:47.839Z,14.60
2017-07-24T04:27:15.464Z,14.60
2017-07-24T04:29:43.096Z,14.70
2017-07-24T04:32:10.761Z,14.70
2017-07-24T04:34:38.396Z,14.70
2017-07-24T04:37:06.020Z,14.70
2017-07-24T04:39:33.690Z,14.70
2017-07-24T04:42:01.312Z,14.70
2017-07-24T04:44:28.931Z,14.80
2017-07-24T04:46:57.352Z,14.90
2017-07-24T04:49:24.983Z,14.80
2017-07-24T04:51:52.616Z,15.00
2017-07-24T04:54:20.294Z,15.10
2017-07-24T04:56:47.915Z,15.20
2017-07-24T04:59:15.541Z,15.40
2017-07-24T05:01:43.213Z,15.60
2017-07-24T05:06:45.017Z,15.90
2017-07-24T05:09:13.576Z,16.40
2017-07-24T05:11:41.245Z,16.30
2017-07-24T05:14:08.913Z,16.60
2017-07-24T05:16:36.539Z,16.80
2017-07-24T05:19:04.166Z,17.20
2017-07-24T05:21:32.597Z,17.70
2017-07-24T05:24:00.246Z,17.60
2017-07-24T05:26:27.876Z,17.90
2017-07-24T05:28:55.541Z,18.00
2017-07-24T05:31:23.221Z,18.00
2017-07-24T05:33:51.621Z,18.00
2017-07-24T05:36:19.288Z,18.00
2017-07-24T05:38:46.926Z,18.10
2017-07-24T05:41:14.566Z,18.40
2017-07-24T05:43:42.203Z,18.80
2017-07-24T05:46:10.579Z,19.30
2017-07-24T05:48:38.194Z,19.20
2017-07-24T05:51:05.823Z,19.40
2017-07-24T05:53:33.433Z,19.70
2017-07-24T05:56:01.037Z,19.70
2017-07-24T05:58:29.446Z,19.80
2017-07-24T06:00:57.062Z,19.70
2017-07-24T06:03:25.446Z,19.80
2017-07-24T06:05:53.086Z,19.80
2017-07-24T06:08:20.693Z,19.70
2017-07-24T06:10:48.313Z,19.80
2017-07-24T06:13:15.957Z,20.10
2017-07-24T06:15:43.564Z,20.30
2017-07-24T06:18:11.186Z,21.00
2017-07-24T06:20:39.776Z,21.90
2017-07-24T06:23:07.502Z,21.90
2017-07-24T06:25:35.893Z,21.90
2017-07-24T06:28:03.550Z,21.90
2017-07-24T06:30:31.172Z,21.90
2017-07-24T06:32:59.531Z,22.30
2017-07-24T06:35:27.935Z,22.70
2017-07-24T06:37:55.556Z,22.60
2017-07-24T06:40:23.167Z,23.10
2017-07-24T06:42:50.829Z,23.40
2017-07-24T06:45:19.218Z,24.60
2017-07-24T06:47:46.836Z,24.50
2017-07-24T06:50:14.479Z,25.30
2017-07-24T06:52:42.095Z,25.40
2017-07-24T06:55:09.694Z,25.60
2017-07-24T06:57:37.338Z,26.20
2017-07-24T07:00:05.717Z,26.10
2017-07-24T07:02:33.330Z,26.10
2017-07-24T07:05:00.967Z,26.20
2017-07-24T07:07:28.583Z,26.90
2017-07-24T07:09:56.188Z,26.90
2017-07-24T07:12:23.827Z,26.50
2017-07-24T07:14:52.199Z,25.80
2017-07-24T07:17:19.837Z,25.70
2017-07-24T07:19:47.444Z,25.60
2017-07-24T07:22:15.058Z,25.00
2017-07-24T07:24:42.687Z,25.00
2017-07-24T07:27:10.292Z,25.20
2017-07-24T07:29:37.926Z,25.40
2017-07-24T07:32:05.539Z,24.80
2017-07-24T07:34:33.139Z,24.80
2017-07-24T07:37:00.768Z,24.90
2017-07-24T07:39:28.367Z,25.10
2017-07-24T07:41:55.992Z,25.20
2017-07-24T07:44:25.237Z,25.00
2017-07-24T07:46:52.867Z,25.00
2017-07-24T07:49:20.504Z,24.60
2017-07-24T07:51:48.113Z,24.70
2017-07-24T07:54:16.518Z,25.10
2017-07-24T07:56:44.119Z,25.00
2017-07-24T07:59:12.483Z,25.50
2017-07-24T08:01:40.889Z,25.40
2017-07-24T08:04:08.486Z,25.30
2017-07-24T08:06:36.134Z,25.30
2017-07-24T08:09:04.513Z,25.40
2017-07-24T08:11:32.884Z,25.00
2017-07-24T08:14:00.521Z,25.00
2017-07-24T08:16:28.894Z,24.70
2017-07-24T08:18:56.535Z,24.60
2017-07-24T08:21:24.916Z,25.30
2017-07-24T08:23:52.519Z,25.20
2017-07-24T08:26:20.161Z,25.90
2017-07-24T08:28:47.761Z,25.50
2017-07-24T08:31:15.391Z,25.20
2017-07-24T08:33:43.009Z,25.10
2017-07-24T08:36:10.606Z,24.90
2017-07-24T08:38:38.233Z,24.40
2017-07-24T08:41:05.863Z,24.20
2017-07-24T08:43:34.263Z,24.40
2017-07-24T08:46:01.881Z,24.40
2017-07-24T08:48:29.491Z,24.50
2017-07-24T08:50:57.133Z,24.30
2017-07-24T08:53:24.728Z,24.00
2017-07-24T08:55:52.362Z,23.90
2017-07-24T08:58:20.737Z,24.50
2017-07-24T09:00:48.352Z,24.40
2017-07-24T09:03:16.792Z,24.30
2017-07-24T09:05:44.417Z,24.30
2017-07-24T09:08:12.043Z,24.60
2017-07-24T09:10:39.657Z,24.70
2017-07-24T09:13:08.019Z,24.50
2017-07-24T09:15:36.442Z,24.60
2017-07-24T09:18:04.045Z,24.50
2017-07-24T09:20:32.460Z,24.00
2017-07-24T09:23:00.063Z,23.90
2017-07-24T09:25:27.682Z,24.20
2017-07-24T09:27:56.092Z,25.00
2017-07-24T09:30:23.721Z,24.90
2017-07-24T09:32:51.367Z,25.40
2017-07-24T09:35:18.964Z,26.00
2017-07-24T09:37:46.568Z,25.90
2017-07-24T09:40:14.216Z,26.30
2017-07-24T09:42:41.822Z,26.10
2017-07-24T09:45:09.457Z,25.80
2017-07-24T09:47:37.069Z,26.20
2017-07-24T09:50:04.683Z,26.50
2017-07-24T09:52:32.336Z,26.00
2017-07-24T09:54:59.945Z,25.90
2017-07-24T09:57:27.588Z,26.40
2017-07-24T09:59:55.210Z,26.60
2017-07-24T10:02:22.811Z,26.50
2017-07-24T10:04:50.461Z,27.00
2017-07-24T10:07:18.065Z,26.90
2017-07-24T10:09:45.707Z,26.30
2017-07-24T10:12:13.322Z,26.50
2017-07-24T10:14:40.930Z,26.80
2017-07-24T10:17:09.337Z,27.20
2017-07-24T10:19:36.948Z,27.10
2017-07-24T10:22:05.357Z,27.40
2017-07-24T10:24:32.961Z,27.30
2017-07-24T10:27:01.337Z,28.20
2017-07-24T10:29:28.983Z,28.10
2017-07-24T10:31:56.583Z,28.70
2017-07-24T10:34:24.226Z,28.50
2017-07-24T10:36:51.837Z,28.30
2017-07-24T10:39:19.461Z,29.00
2017-07-24T10:41:47.117Z,28.80
2017-07-24T10:44:14.727Z,28.00
2017-07-24T10:46:43.164Z,27.70
2017-07-24T10:49:10.776Z,27.60
2017-07-24T10:51:38.381Z,27.50
2017-07-24T10:54:06.025Z,27.30
2017-07-24T10:56:33.629Z,26.90
2017-07-24T10:59:01.263Z,26.20
2017-07-24T11:01:28.890Z,26.10
2017-07-24T11:03:56.513Z,25.80
2017-07-24T11:06:24.149Z,25.80
2017-07-24T11:08:51.763Z,25.60
2017-07-24T11:11:19.413Z,25.20
2017-07-24T11:13:47.010Z,24.90
2017-07-24T11:16:15.387Z,24.40
2017-07-24T11:18:43.041Z,24.30
2017-07-24T11:21:10.653Z,24.70
2017-07-24T11:23:38.289Z,24.90
2017-07-24T11:26:05.891Z,25.10
2017-07-24T11:28:33.508Z,25.20
2017-07-24T11:31:01.917Z,24.60
2017-07-24T11:33:29.528Z,24.60
2017-07-24T11:35:57.164Z,24.60
2017-07-24T11:38:24.769Z,24.60
2017-07-24T11:40:52.388Z,24.80
2017-07-24T11:43:20.029Z,24.80
2017-07-24T11:45:47.632Z,24.70
2017-07-24T11:48:16.053Z,24.70
2017-07-24T11:50:43.657Z,24.60
2017-07-24T11:53:11.251Z,24.70
2017-07-24T11:55:38.884Z,24.60
2017-07-24T11:58:06.494Z,24.50
2017-07-24T12:00:34.129Z,24.50
2017-07-24T12:03:02.518Z,24.50
2017-07-24T12:05:30.125Z,24.40
2017-07-24T12:07:57.773Z,24.60
2017-07-24T12:10:25.405Z,24.20
2017-07-24T12:12:53.056Z,24.00
2017-07-24T12:15:20.666Z,24.10
2017-07-24T12:17:48.278Z,24.10
2017-07-24T12:20:16.687Z,23.80
2017-07-24T12:22:44.283Z,23.70
2017-07-24T12:25:12.687Z,23.70
2017-07-24T12:27:40.285Z,23.60
2017-07-24T12:30:07.888Z,23.80
2017-07-24T12:32:35.536Z,23.80
2017-07-24T12:35:03.149Z,23.70
2017-07-24T12:37:30.789Z,23.80
2017-07-24T12:39:58.432Z,23.90
2017-07-24T12:42:26.810Z,23.90
2017-07-24T12:44:54.451Z,23.80
2017-07-24T12:47:22.061Z,24.00
2017-07-24T12:49:49.713Z,24.00
2017-07-24T12:52:17.330Z,24.10
2017-07-24T12:54:44.937Z,24.00
2017-07-24T12:57:12.595Z,23.90
2017-07-24T12:59:40.215Z,23.80
2017-07-24T13:02:08.615Z,23.60
2017-07-24T13:04:36.239Z,23.60
2017-07-24T13:07:03.865Z,23.30
2017-07-24T13:09:31.516Z,23.30
2017-07-24T13:11:59.890Z,23.20
2017-07-24T13:14:27.534Z,23.10
2017-07-24T13:16:55.132Z,23.00
2017-07-24T13:19:22.751Z,23.00
2017-07-24T13:21:50.398Z,23.00
2017-07-24T13:24:17.999Z,23.10
2017-07-24T13:26:46.409Z,22.80
2017-07-24T13:29:14.039Z,22.80
2017-07-24T13:31:41.666Z,22.80
2017-07-24T13:34:10.077Z,22.70
2017-07-24T13:36:37.693Z,22.60
2017-07-24T13:39:05.318Z,22.60
2017-07-24T13:41:33.754Z,22.60
2017-07-24T13:44:01.360Z,22.50
2017-07-24T13:46:29.009Z,22.60
2017-07-24T13:48:56.612Z,22.60
2017-07-24T13:51:24.247Z,22.60
2017-07-24T13:53:51.853Z,22.60
2017-07-24T13:56:19.462Z,22.70
2017-07-24T13:58:47.896Z,22.80
2017-07-24T14:01:15.520Z,22.80
2017-07-24T14:03:43.168Z,22.80
2017-07-24T14:06:10.781Z,22.90
2017-07-24T14:08:38.399Z,22.90
2017-07-24T14:11:06.035Z,22.80
2017-07-24T14:13:33.643Z,22.70
2017-07-24T14:16:01.272Z,22.80
2017-07-24T14:18:28.880Z,23.00
2017-07-24T14:20:56.487Z,23.10
2017-07-24T14:23:24.136Z,23.20
2017-07-24T14:25:51.759Z,23.30
2017-07-24T14:28:19.395Z,23.30
2017-07-24T14:30:47.008Z,23.20
2017-07-24T14:33:14.629Z,23.00
2017-07-24T14:35:42.274Z,22.90
2017-07-24T14:38:09.893Z,22.80
2017-07-24T14:40:37.506Z,22.60
2017-07-24T14:43:05.913Z,22.70
2017-07-24T14:45:33.531Z,22.60
2017-07-24T14:48:01.142Z,22.60
2017-07-24T14:50:28.792Z,22.50
2017-07-24T14:52:56.404Z,22.60
2017-07-24T14:55:24.007Z,22.60
2017-07-24T14:57:52.423Z,22.60
2017-07-24T15:00:20.029Z,22.50
2017-07-24T15:02:47.652Z,22.60
2017-07-24T15:05:16.077Z,22.40
2017-07-24T15:07:43.693Z,22.40
2017-07-24T15:10:11.309Z,22.40
2017-07-24T15:12:39.716Z,22.40
2017-07-24T15:15:07.342Z,22.40
2017-07-24T15:17:34.973Z,22.50
2017-07-24T15:20:03.376Z,22.50
2017-07-24T15:22:30.989Z,22.40
2017-07-24T15:24:58.602Z,22.50
2017-07-24T15:27:26.254Z,22.40
2017-07-24T15:29:53.877Z,22.50
2017-07-24T15:32:21.487Z,22.40
2017-07-24T15:34:49.125Z,22.40
2017-07-24T15:37:17.491Z,22.40
2017-07-24T15:39:45.103Z,22.30
2017-07-24T15:42:12.739Z,22.30
2017-07-24T15:44:40.348Z,22.20
2017-07-24T15:47:08.027Z,22.30
2017-07-24T15:49:35.681Z,22.10
2017-07-24T15:52:05.039Z,22.10
2017-07-24T15:54:32.694Z,22.10
2017-07-24T15:57:00.336Z,22.00
2017-07-24T15:59:27.957Z,22.00
2017-07-24T16:01:57.237Z,21.90
2017-07-24T16:04:24.885Z,22.00
2017-07-24T16:06:52.496Z,21.90
2017-07-24T16:09:20.123Z,21.80
2017-07-24T16:11:47.773Z,21.90
2017-07-24T16:14:15.389Z,21.90
2017-07-24T16:16:43.025Z,21.90
2017-07-24T16:19:10.672Z,21.90
2017-07-24T16:21:38.276Z,21.90
2017-07-24T16:24:06.647Z,21.80
2017-07-24T16:26:35.059Z,21.80
2017-07-24T16:29:02.663Z,21.70
2017-07-24T16:31:31.043Z,21.70
2017-07-24T16:33:58.697Z,21.70
2017-07-24T16:36:27.465Z,21.60
2017-07-24T16:38:55.079Z,21.60
2017-07-24T16:41:22.711Z,21.60
2017-07-24T16:43:50.322Z,21.50
2017-07-24T16:46:18.591Z,21.40
2017-07-24T16:48:46.248Z,21.20
2017-07-24T16:51:14.254Z,21.10
2017-07-24T16:53:41.911Z,20.80
2017-07-24T16:56:09.572Z,20.90
2017-07-24T16:58:37.191Z,20.90
2017-07-24T17:01:04.933Z,21.00
2017-07-24T17:03:32.592Z,20.80
2017-07-24T17:06:00.198Z,20.80
2017-07-24T17:08:27.800Z,20.70
2017-07-24T17:10:55.441Z,20.70
2017-07-24T17:13:23.149Z,20.50
2017-07-24T17:15:51.608Z,20.40
2017-07-24T17:18:19.235Z,20.30
2017-07-24T17:20:46.958Z,20.30
2017-07-24T17:23:14.564Z,19.90
2017-07-24T17:25:43.002Z,19.50
2017-07-24T17:28:10.616Z,19.40
2017-07-24T17:30:38.241Z,19.30
2017-07-24T17:33:05.965Z,19.20
2017-07-24T17:35:33.572Z,19.00
2017-07-24T17:38:01.175Z,19.00
2017-07-24T17:40:28.831Z,19.00
2017-07-24T17:42:56.533Z,18.90
2017-07-24T17:45:24.712Z,18.90
2017-07-24T17:47:55.100Z,18.80
2017-07-24T17:50:23.058Z,18.80
2017-07-24T17:52:50.813Z,18.80
2017-07-24T17:55:18.460Z,18.70
2017-07-24T17:57:46.160Z,18.60
2017-07-24T18:00:13.801Z,18.60
2017-07-24T18:02:41.471Z,18.60
2017-07-24T18:05:09.235Z,18.60
2017-07-24T18:07:36.834Z,18.60
2017-07-24T18:10:04.669Z,18.50
2017-07-24T18:12:32.616Z,18.40
2017-07-24T18:15:00.261Z,18.40
2017-07-24T18:17:28.008Z,18.40
2017-07-24T18:19:55.731Z,18.30
2017-07-24T18:22:23.394Z,18.30
2017-07-24T18:24:51.038Z,18.30
2017-07-24T18:27:19.516Z,18.30
2017-07-24T18:29:47.886Z,18.30
2017-07-24T18:32:15.547Z,18.30
2017-07-24T18:34:43.179Z,18.30
2017-07-24T18:37:10.818Z,18.30
2017-07-24T18:39:39.252Z,18.20
2017-07-24T18:42:06.876Z,18.20
2017-07-24T18:44:34.511Z,18.10
2017-07-24T18:47:02.162Z,18.00
2017-07-24T18:49:29.797Z,18.00
2017-07-24T18:51:57.415Z,18.00
2017-07-24T18:54:25.140Z,18.00
2017-07-24T18:56:52.790Z,17.90
2017-07-24T18:59:20.448Z,17.90
2017-07-24T19:01:48.937Z,17.70
2017-07-24T19:04:16.591Z,17.60
2017-07-24T19:06:44.226Z,17.70
2017-07-24T19:09:11.898Z,17.80
2017-07-24T19:11:39.546Z,17.70
2017-07-24T19:14:07.181Z,17.70
2017-07-24T19:16:34.853Z,17.80
2017-07-24T19:19:02.497Z,17.70
2017-07-24T19:21:30.283Z,17.70
2017-07-24T19:23:58.715Z,17.70
2017-07-24T19:26:26.353Z,17.70
2017-07-24T19:28:54.012Z,17.80
2017-07-24T19:31:21.676Z,17.70
2017-07-24T19:33:49.308Z,17.70
2017-07-24T19:36:16.948Z,17.80
2017-07-24T19:38:44.616Z,17.80
2017-07-24T19:41:12.489Z,17.80
2017-07-24T19:43:40.211Z,17.80
2017-07-24T19:46:07.878Z,17.80
2017-07-24T19:48:36.282Z,17.70
2017-07-24T19:51:03.960Z,17.70
2017-07-24T19:53:31.626Z,17.80
2017-07-24T19:55:59.265Z,17.90
2017-07-24T19:58:26.907Z,17.80
2017-07-24T20:00:54.668Z,17.90
2017-07-24T20:03:22.296Z,17.90
2017-07-24T20:05:49.923Z,17.90
2017-07-24T20:08:17.584Z,17.90
2017-07-24T20:10:45.211Z,17.90
2017-07-24T20:13:12.874Z,17.90
2017-07-24T20:15:40.524Z,17.90
2017-07-24T20:18:08.162Z,17.90
2017-07-24T20:20:35.788Z,17.90
2017-07-24T20:23:03.457Z,17.90
2017-07-24T20:25:31.088Z,17.80
2017-07-24T20:27:58.724Z,17.90
2017-07-24T20:30:26.397Z,17.80
2017-07-24T20:32:54.051Z,17.90
2017-07-24T20:35:21.675Z,17.80
2017-07-24T20:37:49.331Z,17.80
2017-07-24T20:40:16.960Z,17.80
2017-07-24T20:42:44.586Z,17.80
2017-07-24T20:45:12.319Z,17.70
2017-07-24T20:47:41.065Z,17.70
2017-07-24T20:50:08.728Z,17.60
2017-07-24T20:52:37.156Z,17.80
2017-07-24T20:55:05.090Z,17.70
2017-07-24T20:57:32.750Z,17.70
2017-07-24T21:00:00.444Z,17.70
2017-07-24T21:02:28.159Z,17.70
2017-07-24T21:04:55.832Z,17.60
2017-07-24T21:07:23.503Z,17.70
2017-07-24T21:09:51.139Z,17.80
2017-07-24T21:12:19.535Z,17.70
2017-07-24T21:14:47.195Z,17.70
2017-07-24T21:17:14.834Z,17.70
2017-07-24T21:19:42.529Z,17.60
2017-07-24T21:22:10.255Z,17.50
2017-07-24T21:24:38.675Z,17.40
2017-07-24T21:27:06.309Z,17.30
2017-07-24T21:29:33.977Z,17.30
2017-07-24T21:32:01.776Z,17.30
2017-07-24T21:34:30.251Z,17.10
2017-07-24T21:36:58.822Z,17.00
2017-07-24T21:39:27.256Z,17.00
2017-07-24T21:41:54.892Z,16.90
2017-07-24T21:44:22.555Z,16.80
2017-07-24T21:46:50.192Z,16.80
2017-07-24T21:49:17.836Z,16.80
2017-07-24T21:51:45.970Z,16.70
2017-07-24T21:54:15.349Z,16.70
2017-07-24T21:56:43.085Z,16.60
2017-07-24T21:59:10.864Z,16.60
2017-07-24T22:01:38.529Z,16.50
2017-07-24T22:04:06.188Z,16.50
2017-07-24T22:06:33.852Z,16.50
2017-07-24T22:09:01.565Z,16.60
2017-07-24T22:11:29.240Z,16.60
2017-07-24T22:13:56.920Z,16.60
2017-07-24T22:16:25.467Z,16.40
2017-07-24T22:18:53.904Z,16.40
2017-07-24T22:21:21.606Z,16.30
2017-07-24T22:23:49.269Z,16.40
2017-07-24T22:26:16.896Z,16.40
2017-07-24T22:28:44.557Z,16.40
2017-07-24T22:31:12.183Z,16.40
2017-07-24T22:33:40.575Z,16.40
2017-07-24T22:36:08.232Z,16.30
2017-07-24T22:38:35.869Z,16.40
2017-07-24T22:41:03.499Z,16.40
2017-07-24T22:43:31.188Z,16.40
2017-07-24T22:45:58.838Z,16.30
2017-07-24T22:48:26.464Z,16.30
2017-07-24T22:50:54.175Z,16.40
2017-07-24T22:53:22.811Z,16.20
2017-07-24T22:55:50.461Z,16.20
2017-07-24T22:58:18.118Z,16.20
2017-07-24T23:00:45.742Z,16.10
2017-07-24T23:03:13.376Z,16.10
2017-07-24T23:05:41.040Z,16.10
2017-07-24T23:08:08.677Z,16.10
2017-07-24T23:10:36.313Z,16.20
2017-07-24T23:13:03.966Z,16.20
2017-07-24T23:15:31.595Z,16.10
2017-07-24T23:17:59.233Z,16.10
2017-07-24T23:20:26.893Z,16.00
2017-07-24T23:22:54.537Z,16.00
2017-07-24T23:25:22.168Z,16.00
2017-07-24T23:27:49.836Z,15.90
2017-07-24T23:30:17.472Z,15.90
2017-07-24T23:32:45.101Z,15.90
2017-07-24T23:35:12.752Z,16.00
2017-07-24T23:37:40.397Z,16.00
2017-07-24T23:40:08.024Z,15.90
2017-07-24T23:42:36.442Z,15.80
2017-07-24T23:45:04.062Z,15.80
2017-07-24T23:47:31.696Z,15.90
2017-07-24T23:49:59.346Z,15.80
2017-07-24T23:52:26.988Z,15.80
2017-07-24T23:54:54.614Z,15.80
2017-07-24T23:57:23.031Z,15.80
2017-07-24T23:59:50.673Z,15.70
